Terminal Aerodrome Forecast
Issued by NWS Twin Cities, MN

Home | Current Version | Previous Version | Text Only | Print | Product List | Glossary Off
Versions: 1 2 3 4 5 6 7 8 9 10 11 12 13 14 15 16 17 18 19 20 21

000
FTUS43 KMPX 261500 AAA
TAFMSP
TAF AMD
KMSP 261511Z 2615/2718 01010KT 6SM -SHSN BR OVC008
     FM261800 35008KT P6SM OVC015
     FM262100 35009KT P6SM OVC022
     FM270400 36009KT 4SM -SN BR OVC012
     FM270500 35009KT 1SM -SN BR VV010
     FM271200 34008KT 3SM -SN BKN012 OVC030
     FM271600 31008KT P6SM BKN020=

USA.gov is the U.S. government's official web portal to all federal, state and local government web resources and services.